sensor_id;sensor_type;location;lat;lon;timestamp;P1;durP1;ratioP1;P2;durP2;ratioP2
68821;SDS011;55834;50.870;4.606;2023-06-26T00:01:15;4.63;;;2.78;;
68821;SDS011;55834;50.870;4.606;2023-06-26T00:03:40;4.45;;;3.10;;
68821;SDS011;55834;50.870;4.606;2023-06-26T00:06:05;3.03;;;2.50;;
68821;SDS011;55834;50.870;4.606;2023-06-26T00:08:31;4.35;;;3.25;;
68821;SDS011;55834;50.870;4.606;2023-06-26T00:10:56;3.33;;;2.90;;
68821;SDS011;55834;50.870;4.606;2023-06-26T00:13:22;5.00;;;3.35;;
68821;SDS011;55834;50.870;4.606;2023-06-26T00:18:13;4.13;;;3.03;;
68821;SDS011;55834;50.870;4.606;2023-06-26T00:20:39;5.72;;;3.00;;
68821;SDS011;55834;50.870;4.606;2023-06-26T00:23:04;4.03;;;3.37;;
68821;SDS011;55834;50.870;4.606;2023-06-26T00:25:32;4.38;;;2.85;;
68821;SDS011;55834;50.870;4.606;2023-06-26T00:28:00;5.15;;;3.40;;
68821;SDS011;55834;50.870;4.606;2023-06-26T00:30:26;5.20;;;3.25;;
68821;SDS011;55834;50.870;4.606;2023-06-26T00:32:51;4.60;;;3.33;;
68821;SDS011;55834;50.870;4.606;2023-06-26T00:35:16;4.10;;;3.30;;
68821;SDS011;55834;50.870;4.606;2023-06-26T00:37:42;3.92;;;3.15;;
68821;SDS011;55834;50.870;4.606;2023-06-26T00:40:07;4.33;;;3.20;;
68821;SDS011;55834;50.870;4.606;2023-06-26T00:42:34;4.22;;;3.35;;
68821;SDS011;55834;50.870;4.606;2023-06-26T00:44:59;3.60;;;2.93;;
68821;SDS011;55834;50.870;4.606;2023-06-26T00:47:24;6.40;;;2.77;;
68821;SDS011;55834;50.870;4.606;2023-06-26T00:49:50;4.90;;;3.60;;
68821;SDS011;55834;50.870;4.606;2023-06-26T00:52:17;3.55;;;2.80;;
68821;SDS011;55834;50.870;4.606;2023-06-26T00:54:43;4.78;;;2.78;;
68821;SDS011;55834;50.870;4.606;2023-06-26T00:57:09;4.88;;;2.58;;
68821;SDS011;55834;50.870;4.606;2023-06-26T00:59:35;4.30;;;2.78;;
68821;SDS011;55834;50.870;4.606;2023-06-26T01:02:00;3.90;;;2.72;;
68821;SDS011;55834;50.870;4.606;2023-06-26T01:04:26;5.68;;;3.70;;
68821;SDS011;55834;50.870;4.606;2023-06-26T01:06:52;3.65;;;2.63;;
68821;SDS011;55834;50.870;4.606;2023-06-26T01:09:19;3.33;;;2.63;;
68821;SDS011;55834;50.870;4.606;2023-06-26T01:11:45;3.80;;;2.63;;
68821;SDS011;55834;50.870;4.606;2023-06-26T01:14:11;4.88;;;3.60;;
68821;SDS011;55834;50.870;4.606;2023-06-26T01:16:37;3.58;;;2.38;;
68821;SDS011;55834;50.870;4.606;2023-06-26T01:19:09;3.42;;;2.65;;
68821;SDS011;55834;50.870;4.606;2023-06-26T01:21:40;4.90;;;3.40;;
68821;SDS011;55834;50.870;4.606;2023-06-26T01:24:17;4.45;;;2.50;;
68821;SDS011;55834;50.870;4.606;2023-06-26T01:26:47;4.40;;;3.20;;
68821;SDS011;55834;50.870;4.606;2023-06-26T01:29:15;3.72;;;2.70;;
68821;SDS011;55834;50.870;4.606;2023-06-26T01:31:43;2.63;;;2.42;;
68821;SDS011;55834;50.870;4.606;2023-06-26T01:34:11;2.72;;;1.92;;
68821;SDS011;55834;50.870;4.606;2023-06-26T01:36:37;3.25;;;2.25;;
68821;SDS011;55834;50.870;4.606;2023-06-26T01:39:03;3.42;;;2.65;;
68821;SDS011;55834;50.870;4.606;2023-06-26T01:41:28;5.03;;;1.90;;
68821;SDS011;55834;50.870;4.606;2023-06-26T01:52:01;3.78;;;2.00;;
68821;SDS011;55834;50.870;4.606;2023-06-26T01:54:35;2.95;;;1.83;;
68821;SDS011;55834;50.870;4.606;2023-06-26T01:57:04;5.47;;;2.38;;
68821;SDS011;55834;50.870;4.606;2023-06-26T01:59:32;3.08;;;2.13;;
68821;SDS011;55834;50.870;4.606;2023-06-26T02:02:00;3.28;;;2.13;;
68821;SDS011;55834;50.870;4.606;2023-06-26T02:04:26;5.13;;;2.10;;
68821;SDS011;55834;50.870;4.606;2023-06-26T02:06:51;4.40;;;2.38;;
68821;SDS011;55834;50.870;4.606;2023-06-26T02:09:17;2.13;;;1.92;;
68821;SDS011;55834;50.870;4.606;2023-06-26T02:11:42;7.43;;;3.05;;
68821;SDS011;55834;50.870;4.606;2023-06-26T02:14:08;3.38;;;1.67;;
68821;SDS011;55834;50.870;4.606;2023-06-26T02:16:34;7.28;;;2.47;;
68821;SDS011;55834;50.870;4.606;2023-06-26T02:18:59;6.07;;;2.53;;
68821;SDS011;55834;50.870;4.606;2023-06-26T02:21:25;3.10;;;2.37;;
68821;SDS011;55834;50.870;4.606;2023-06-26T02:23:50;3.03;;;1.67;;
68821;SDS011;55834;50.870;4.606;2023-06-26T02:26:16;4.13;;;2.03;;
68821;SDS011;55834;50.870;4.606;2023-06-26T02:28:41;6.43;;;2.30;;
68821;SDS011;55834;50.870;4.606;2023-06-26T02:31:06;3.03;;;2.10;;
68821;SDS011;55834;50.870;4.606;2023-06-26T02:33:32;2.90;;;2.10;;
68821;SDS011;55834;50.870;4.606;2023-06-26T02:35:57;4.50;;;2.50;;
68821;SDS011;55834;50.870;4.606;2023-06-26T02:38:22;4.53;;;2.57;;
68821;SDS011;55834;50.870;4.606;2023-06-26T02:40:48;4.73;;;2.90;;
68821;SDS011;55834;50.870;4.606;2023-06-26T02:43:13;4.13;;;1.97;;
68821;SDS011;55834;50.870;4.606;2023-06-26T02:45:38;3.55;;;2.17;;
68821;SDS011;55834;50.870;4.606;2023-06-26T02:48:04;3.70;;;2.70;;
68821;SDS011;55834;50.870;4.606;2023-06-26T02:50:29;4.18;;;2.10;;
68821;SDS011;55834;50.870;4.606;2023-06-26T02:52:55;3.70;;;2.30;;
68821;SDS011;55834;50.870;4.606;2023-06-26T02:55:20;4.60;;;2.13;;
68821;SDS011;55834;50.870;4.606;2023-06-26T02:57:46;5.70;;;2.60;;
68821;SDS011;55834;50.870;4.606;2023-06-26T03:00:11;4.20;;;2.43;;
68821;SDS011;55834;50.870;4.606;2023-06-26T03:02:38;4.05;;;2.40;;
68821;SDS011;55834;50.870;4.606;2023-06-26T03:05:04;1.92;;;1.77;;
68821;SDS011;55834;50.870;4.606;2023-06-26T03:07:29;5.38;;;2.50;;
68821;SDS011;55834;50.870;4.606;2023-06-26T03:09:55;4.43;;;2.65;;
68821;SDS011;55834;50.870;4.606;2023-06-26T03:12:20;4.47;;;2.33;;
68821;SDS011;55834;50.870;4.606;2023-06-26T03:14:46;5.82;;;3.10;;
68821;SDS011;55834;50.870;4.606;2023-06-26T03:17:11;5.40;;;2.83;;
68821;SDS011;55834;50.870;4.606;2023-06-26T03:19:37;6.22;;;2.45;;
68821;SDS011;55834;50.870;4.606;2023-06-26T03:22:02;4.07;;;2.27;;
68821;SDS011;55834;50.870;4.606;2023-06-26T03:24:28;5.32;;;2.70;;
68821;SDS011;55834;50.870;4.606;2023-06-26T03:26:54;7.75;;;2.75;;
68821;SDS011;55834;50.870;4.606;2023-06-26T03:29:19;8.75;;;3.03;;
68821;SDS011;55834;50.870;4.606;2023-06-26T03:31:45;8.20;;;2.58;;
68821;SDS011;55834;50.870;4.606;2023-06-26T03:34:10;4.43;;;2.40;;
68821;SDS011;55834;50.870;4.606;2023-06-26T03:36:35;5.20;;;2.17;;
68821;SDS011;55834;50.870;4.606;2023-06-26T03:39:01;5.20;;;2.77;;
68821;SDS011;55834;50.870;4.606;2023-06-26T03:41:26;4.13;;;2.00;;
68821;SDS011;55834;50.870;4.606;2023-06-26T03:43:52;6.80;;;2.67;;
68821;SDS011;55834;50.870;4.606;2023-06-26T03:46:17;4.03;;;2.33;;
68821;SDS011;55834;50.870;4.606;2023-06-26T03:48:42;5.18;;;2.28;;
68821;SDS011;55834;50.870;4.606;2023-06-26T03:51:08;5.03;;;2.23;;
68821;SDS011;55834;50.870;4.606;2023-06-26T03:53:33;4.55;;;2.58;;
68821;SDS011;55834;50.870;4.606;2023-06-26T03:55:59;5.32;;;2.13;;
68821;SDS011;55834;50.870;4.606;2023-06-26T03:58:24;5.20;;;2.78;;
68821;SDS011;55834;50.870;4.606;2023-06-26T04:00:50;9.15;;;2.75;;
68821;SDS011;55834;50.870;4.606;2023-06-26T04:03:16;5.18;;;2.25;;
68821;SDS011;55834;50.870;4.606;2023-06-26T04:05:41;7.00;;;2.30;;
68821;SDS011;55834;50.870;4.606;2023-06-26T04:08:07;6.30;;;3.30;;
68821;SDS011;55834;50.870;4.606;2023-06-26T04:10:33;6.93;;;3.05;;
68821;SDS011;55834;50.870;4.606;2023-06-26T04:12:59;6.03;;;2.72;;
68821;SDS011;55834;50.870;4.606;2023-06-26T04:15:24;7.80;;;3.17;;
68821;SDS011;55834;50.870;4.606;2023-06-26T04:17:49;6.63;;;2.50;;
68821;SDS011;55834;50.870;4.606;2023-06-26T04:20:15;7.07;;;2.00;;
68821;SDS011;55834;50.870;4.606;2023-06-26T04:22:40;5.77;;;2.40;;
68821;SDS011;55834;50.870;4.606;2023-06-26T04:25:05;6.47;;;2.57;;
68821;SDS011;55834;50.870;4.606;2023-06-26T04:27:31;7.88;;;2.88;;
68821;SDS011;55834;50.870;4.606;2023-06-26T04:29:57;6.32;;;2.20;;
68821;SDS011;55834;50.870;4.606;2023-06-26T04:32:22;6.57;;;3.07;;
68821;SDS011;55834;50.870;4.606;2023-06-26T04:34:48;6.78;;;2.50;;
68821;SDS011;55834;50.870;4.606;2023-06-26T04:37:14;7.03;;;2.22;;
68821;SDS011;55834;50.870;4.606;2023-06-26T04:39:42;4.50;;;2.70;;
68821;SDS011;55834;50.870;4.606;2023-06-26T04:42:08;9.75;;;2.42;;
68821;SDS011;55834;50.870;4.606;2023-06-26T04:44:34;3.22;;;2.45;;
68821;SDS011;55834;50.870;4.606;2023-06-26T04:46:59;7.10;;;2.65;;
68821;SDS011;55834;50.870;4.606;2023-06-26T04:49:25;11.07;;;2.85;;
68821;SDS011;55834;50.870;4.606;2023-06-26T04:51:52;6.95;;;2.55;;
68821;SDS011;55834;50.870;4.606;2023-06-26T04:54:18;6.57;;;2.55;;
68821;SDS011;55834;50.870;4.606;2023-06-26T04:56:43;8.93;;;2.35;;
68821;SDS011;55834;50.870;4.606;2023-06-26T04:59:11;5.35;;;2.25;;
68821;SDS011;55834;50.870;4.606;2023-06-26T05:01:38;8.43;;;2.95;;
68821;SDS011;55834;50.870;4.606;2023-06-26T05:04:04;7.75;;;1.88;;
68821;SDS011;55834;50.870;4.606;2023-06-26T05:06:30;9.88;;;3.35;;
68821;SDS011;55834;50.870;4.606;2023-06-26T05:08:56;6.85;;;1.90;;
68821;SDS011;55834;50.870;4.606;2023-06-26T05:11:21;4.07;;;1.87;;
68821;SDS011;55834;50.870;4.606;2023-06-26T05:13:47;8.57;;;2.35;;
68821;SDS011;55834;50.870;4.606;2023-06-26T05:16:12;8.70;;;2.83;;
68821;SDS011;55834;50.870;4.606;2023-06-26T05:18:37;8.70;;;2.70;;
68821;SDS011;55834;50.870;4.606;2023-06-26T05:21:03;8.07;;;2.78;;
68821;SDS011;55834;50.870;4.606;2023-06-26T05:23:32;7.03;;;2.13;;
68821;SDS011;55834;50.870;4.606;2023-06-26T05:25:58;7.60;;;2.17;;
68821;SDS011;55834;50.870;4.606;2023-06-26T05:30:52;9.38;;;2.15;;
68821;SDS011;55834;50.870;4.606;2023-06-26T05:33:18;7.07;;;2.35;;
68821;SDS011;55834;50.870;4.606;2023-06-26T05:35:46;6.82;;;2.45;;
68821;SDS011;55834;50.870;4.606;2023-06-26T05:38:13;6.03;;;2.17;;
68821;SDS011;55834;50.870;4.606;2023-06-26T05:40:39;5.22;;;2.63;;
68821;SDS011;55834;50.870;4.606;2023-06-26T05:43:05;7.65;;;2.40;;
68821;SDS011;55834;50.870;4.606;2023-06-26T05:45:31;4.05;;;1.75;;
68821;SDS011;55834;50.870;4.606;2023-06-26T05:47:56;5.63;;;1.80;;
68821;SDS011;55834;50.870;4.606;2023-06-26T05:50:22;8.30;;;2.38;;
68821;SDS011;55834;50.870;4.606;2023-06-26T05:52:48;6.22;;;2.25;;
68821;SDS011;55834;50.870;4.606;2023-06-26T05:55:14;7.70;;;2.60;;
68821;SDS011;55834;50.870;4.606;2023-06-26T05:57:39;6.63;;;2.15;;
68821;SDS011;55834;50.870;4.606;2023-06-26T06:00:05;4.90;;;1.77;;
68821;SDS011;55834;50.870;4.606;2023-06-26T06:02:35;9.05;;;2.50;;
68821;SDS011;55834;50.870;4.606;2023-06-26T06:05:01;3.55;;;1.80;;
68821;SDS011;55834;50.870;4.606;2023-06-26T06:07:27;5.53;;;1.73;;
68821;SDS011;55834;50.870;4.606;2023-06-26T06:09:52;8.37;;;2.23;;
68821;SDS011;55834;50.870;4.606;2023-06-26T06:12:17;10.67;;;2.53;;
68821;SDS011;55834;50.870;4.606;2023-06-26T06:14:43;5.50;;;1.67;;
68821;SDS011;55834;50.870;4.606;2023-06-26T06:17:08;3.83;;;1.50;;
68821;SDS011;55834;50.870;4.606;2023-06-26T06:19:33;7.00;;;1.77;;
68821;SDS011;55834;50.870;4.606;2023-06-26T06:21:59;6.53;;;2.00;;
68821;SDS011;55834;50.870;4.606;2023-06-26T06:24:24;5.33;;;2.00;;
68821;SDS011;55834;50.870;4.606;2023-06-26T06:26:49;5.80;;;2.03;;
68821;SDS011;55834;50.870;4.606;2023-06-26T06:29:15;3.97;;;1.43;;
68821;SDS011;55834;50.870;4.606;2023-06-26T06:31:40;3.28;;;1.30;;
68821;SDS011;55834;50.870;4.606;2023-06-26T06:34:05;5.60;;;1.60;;
68821;SDS011;55834;50.870;4.606;2023-06-26T06:36:31;5.00;;;2.47;;
68821;SDS011;55834;50.870;4.606;2023-06-26T06:38:56;3.42;;;1.50;;
68821;SDS011;55834;50.870;4.606;2023-06-26T06:41:21;8.17;;;1.63;;
68821;SDS011;55834;50.870;4.606;2023-06-26T06:43:47;5.73;;;2.00;;
68821;SDS011;55834;50.870;4.606;2023-06-26T06:46:12;8.27;;;1.85;;
68821;SDS011;55834;50.870;4.606;2023-06-26T06:48:37;4.50;;;1.50;;
68821;SDS011;55834;50.870;4.606;2023-06-26T06:51:03;8.23;;;2.30;;
68821;SDS011;55834;50.870;4.606;2023-06-26T06:53:28;3.22;;;1.33;;
68821;SDS011;55834;50.870;4.606;2023-06-26T06:55:54;6.15;;;1.77;;
68821;SDS011;55834;50.870;4.606;2023-06-26T06:58:19;8.88;;;1.73;;
68821;SDS011;55834;50.870;4.606;2023-06-26T07:00:45;5.25;;;1.52;;
68821;SDS011;55834;50.870;4.606;2023-06-26T07:03:10;3.47;;;1.27;;
68821;SDS011;55834;50.870;4.606;2023-06-26T07:05:36;6.55;;;1.90;;
68821;SDS011;55834;50.870;4.606;2023-06-26T07:08:02;4.78;;;1.70;;
68821;SDS011;55834;50.870;4.606;2023-06-26T07:10:28;3.50;;;1.30;;
68821;SDS011;55834;50.870;4.606;2023-06-26T07:12:54;4.20;;;1.17;;
68821;SDS011;55834;50.870;4.606;2023-06-26T07:15:19;6.37;;;1.70;;
68821;SDS011;55834;50.870;4.606;2023-06-26T07:17:45;5.50;;;1.00;;
68821;SDS011;55834;50.870;4.606;2023-06-26T07:20:10;3.67;;;2.03;;
68821;SDS011;55834;50.870;4.606;2023-06-26T07:22:40;6.47;;;2.17;;
68821;SDS011;55834;50.870;4.606;2023-06-26T07:25:05;5.07;;;1.20;;
68821;SDS011;55834;50.870;4.606;2023-06-26T07:27:34;3.65;;;1.60;;
68821;SDS011;55834;50.870;4.606;2023-06-26T07:30:00;4.00;;;1.58;;
68821;SDS011;55834;50.870;4.606;2023-06-26T07:32:25;5.60;;;1.45;;
68821;SDS011;55834;50.870;4.606;2023-06-26T07:34:51;5.17;;;1.20;;
68821;SDS011;55834;50.870;4.606;2023-06-26T07:37:16;4.73;;;1.30;;
68821;SDS011;55834;50.870;4.606;2023-06-26T07:39:41;4.43;;;1.67;;
68821;SDS011;55834;50.870;4.606;2023-06-26T07:42:07;3.13;;;0.97;;
68821;SDS011;55834;50.870;4.606;2023-06-26T07:44:32;4.60;;;1.27;;
68821;SDS011;55834;50.870;4.606;2023-06-26T07:46:57;4.63;;;1.10;;
68821;SDS011;55834;50.870;4.606;2023-06-26T07:49:23;2.73;;;1.07;;
68821;SDS011;55834;50.870;4.606;2023-06-26T07:51:48;3.60;;;1.40;;
68821;SDS011;55834;50.870;4.606;2023-06-26T07:54:13;6.00;;;1.40;;
68821;SDS011;55834;50.870;4.606;2023-06-26T07:56:52;2.93;;;1.50;;
68821;SDS011;55834;50.870;4.606;2023-06-26T07:59:26;2.90;;;0.98;;
68821;SDS011;55834;50.870;4.606;2023-06-26T08:01:53;3.45;;;1.10;;
68821;SDS011;55834;50.870;4.606;2023-06-26T08:04:20;2.88;;;1.38;;
68821;SDS011;55834;50.870;4.606;2023-06-26T08:06:48;4.10;;;1.58;;
68821;SDS011;55834;50.870;4.606;2023-06-26T08:09:14;4.40;;;1.27;;
68821;SDS011;55834;50.870;4.606;2023-06-26T08:11:40;3.58;;;1.38;;
68821;SDS011;55834;50.870;4.606;2023-06-26T08:14:05;5.03;;;1.23;;
68821;SDS011;55834;50.870;4.606;2023-06-26T08:16:30;2.73;;;0.90;;
68821;SDS011;55834;50.870;4.606;2023-06-26T08:18:56;1.20;;;1.10;;
68821;SDS011;55834;50.870;4.606;2023-06-26T08:21:21;6.18;;;1.23;;
68821;SDS011;55834;50.870;4.606;2023-06-26T08:23:46;2.50;;;1.02;;
68821;SDS011;55834;50.870;4.606;2023-06-26T08:26:13;4.50;;;1.30;;
68821;SDS011;55834;50.870;4.606;2023-06-26T08:31:03;4.67;;;1.80;;
68821;SDS011;55834;50.870;4.606;2023-06-26T08:33:29;3.27;;;1.60;;
68821;SDS011;55834;50.870;4.606;2023-06-26T08:35:54;2.70;;;1.10;;
68821;SDS011;55834;50.870;4.606;2023-06-26T08:38:19;1.97;;;0.87;;
68821;SDS011;55834;50.870;4.606;2023-06-26T08:40:46;3.33;;;1.08;;
68821;SDS011;55834;50.870;4.606;2023-06-26T08:43:11;3.40;;;1.30;;
68821;SDS011;55834;50.870;4.606;2023-06-26T08:45:39;3.88;;;1.33;;
68821;SDS011;55834;50.870;4.606;2023-06-26T08:48:07;1.80;;;1.08;;
68821;SDS011;55834;50.870;4.606;2023-06-26T08:50:33;4.22;;;1.40;;
68821;SDS011;55834;50.870;4.606;2023-06-26T08:55:25;3.60;;;0.83;;
68821;SDS011;55834;50.870;4.606;2023-06-26T08:57:53;4.43;;;1.23;;
68821;SDS011;55834;50.870;4.606;2023-06-26T09:00:19;2.55;;;1.02;;
68821;SDS011;55834;50.870;4.606;2023-06-26T09:02:45;3.28;;;1.00;;
68821;SDS011;55834;50.870;4.606;2023-06-26T09:05:11;4.50;;;1.02;;
68821;SDS011;55834;50.870;4.606;2023-06-26T09:07:36;3.97;;;1.48;;
68821;SDS011;55834;50.870;4.606;2023-06-26T09:10:02;1.53;;;0.87;;
68821;SDS011;55834;50.870;4.606;2023-06-26T09:12:27;3.05;;;0.88;;
68821;SDS011;55834;50.870;4.606;2023-06-26T09:14:53;2.20;;;0.90;;
68821;SDS011;55834;50.870;4.606;2023-06-26T09:17:24;3.60;;;1.15;;
68821;SDS011;55834;50.870;4.606;2023-06-26T09:19:49;2.10;;;1.15;;
68821;SDS011;55834;50.870;4.606;2023-06-26T09:22:15;1.57;;;1.17;;
68821;SDS011;55834;50.870;4.606;2023-06-26T09:24:41;2.60;;;0.52;;
68821;SDS011;55834;50.870;4.606;2023-06-26T09:27:07;3.97;;;0.80;;
68821;SDS011;55834;50.870;4.606;2023-06-26T09:29:35;2.92;;;1.30;;
68821;SDS011;55834;50.870;4.606;2023-06-26T09:32:00;0.65;;;0.65;;
68821;SDS011;55834;50.870;4.606;2023-06-26T09:34:32;3.67;;;1.10;;
68821;SDS011;55834;50.870;4.606;2023-06-26T09:36:58;4.70;;;1.42;;
68821;SDS011;55834;50.870;4.606;2023-06-26T09:39:29;2.42;;;0.70;;
68821;SDS011;55834;50.870;4.606;2023-06-26T09:41:55;3.60;;;1.23;;
68821;SDS011;55834;50.870;4.606;2023-06-26T09:44:22;2.60;;;0.93;;
68821;SDS011;55834;50.870;4.606;2023-06-26T09:46:47;2.42;;;0.88;;
68821;SDS011;55834;50.870;4.606;2023-06-26T09:49:13;3.85;;;1.15;;
68821;SDS011;55834;50.870;4.606;2023-06-26T09:51:39;3.88;;;1.30;;
68821;SDS011;55834;50.870;4.606;2023-06-26T09:54:06;3.28;;;0.95;;
68821;SDS011;55834;50.870;4.606;2023-06-26T09:56:32;3.08;;;0.82;;
68821;SDS011;55834;50.870;4.606;2023-06-26T09:58:59;3.92;;;1.17;;
68821;SDS011;55834;50.870;4.606;2023-06-26T10:01:28;2.33;;;0.95;;
68821;SDS011;55834;50.870;4.606;2023-06-26T10:03:55;3.08;;;0.80;;
68821;SDS011;55834;50.870;4.606;2023-06-26T10:06:27;2.95;;;0.75;;
68821;SDS011;55834;50.870;4.606;2023-06-26T10:08:56;1.52;;;1.00;;
68821;SDS011;55834;50.870;4.606;2023-06-26T10:11:24;2.17;;;1.20;;
68821;SDS011;55834;50.870;4.606;2023-06-26T10:13:52;2.35;;;0.95;;
68821;SDS011;55834;50.870;4.606;2023-06-26T10:16:29;3.40;;;0.93;;
68821;SDS011;55834;50.870;4.606;2023-06-26T10:18:58;1.42;;;0.90;;
68821;SDS011;55834;50.870;4.606;2023-06-26T10:21:27;5.80;;;1.10;;
68821;SDS011;55834;50.870;4.606;2023-06-26T10:23:56;2.20;;;0.95;;
68821;SDS011;55834;50.870;4.606;2023-06-26T10:26:22;1.38;;;0.68;;
68821;SDS011;55834;50.870;4.606;2023-06-26T10:28:50;4.35;;;0.77;;
68821;SDS011;55834;50.870;4.606;2023-06-26T10:31:22;2.08;;;0.98;;
68821;SDS011;55834;50.870;4.606;2023-06-26T10:33:51;2.80;;;0.90;;
68821;SDS011;55834;50.870;4.606;2023-06-26T10:39:03;3.08;;;0.82;;
68821;SDS011;55834;50.870;4.606;2023-06-26T10:41:35;4.57;;;0.93;;
68821;SDS011;55834;50.870;4.606;2023-06-26T10:46:28;2.80;;;1.23;;
68821;SDS011;55834;50.870;4.606;2023-06-26T10:48:58;4.10;;;1.08;;
68821;SDS011;55834;50.870;4.606;2023-06-26T10:51:27;0.88;;;0.60;;
68821;SDS011;55834;50.870;4.606;2023-06-26T10:53:56;3.78;;;0.60;;
68821;SDS011;55834;50.870;4.606;2023-06-26T10:56:41;3.30;;;1.73;;
68821;SDS011;55834;50.870;4.606;2023-06-26T10:59:11;2.08;;;1.23;;
68821;SDS011;55834;50.870;4.606;2023-06-26T11:01:40;2.35;;;1.10;;
68821;SDS011;55834;50.870;4.606;2023-06-26T11:04:07;2.90;;;1.27;;
68821;SDS011;55834;50.870;4.606;2023-06-26T11:06:34;3.28;;;0.93;;
68821;SDS011;55834;50.870;4.606;2023-06-26T11:09:14;3.58;;;0.93;;
68821;SDS011;55834;50.870;4.606;2023-06-26T11:14:19;2.75;;;1.30;;
68821;SDS011;55834;50.870;4.606;2023-06-26T11:16:45;2.30;;;0.77;;
68821;SDS011;55834;50.870;4.606;2023-06-26T11:19:10;2.88;;;0.98;;
68821;SDS011;55834;50.870;4.606;2023-06-26T11:21:37;2.22;;;0.77;;
68821;SDS011;55834;50.870;4.606;2023-06-26T11:24:03;2.67;;;1.27;;
68821;SDS011;55834;50.870;4.606;2023-06-26T11:26:30;2.67;;;1.30;;
68821;SDS011;55834;50.870;4.606;2023-06-26T11:29:02;3.53;;;1.00;;
68821;SDS011;55834;50.870;4.606;2023-06-26T11:31:28;4.37;;;1.20;;
68821;SDS011;55834;50.870;4.606;2023-06-26T11:33:58;2.22;;;0.60;;
68821;SDS011;55834;50.870;4.606;2023-06-26T11:36:25;2.25;;;0.82;;
68821;SDS011;55834;50.870;4.606;2023-06-26T11:41:21;4.13;;;1.45;;
68821;SDS011;55834;50.870;4.606;2023-06-26T11:43:46;1.75;;;0.98;;
68821;SDS011;55834;50.870;4.606;2023-06-26T11:46:12;4.05;;;1.20;;
68821;SDS011;55834;50.870;4.606;2023-06-26T11:48:37;2.72;;;1.38;;
68821;SDS011;55834;50.870;4.606;2023-06-26T11:53:30;1.65;;;1.00;;
68821;SDS011;55834;50.870;4.606;2023-06-26T11:55:55;2.10;;;1.02;;
68821;SDS011;55834;50.870;4.606;2023-06-26T11:58:22;4.57;;;1.38;;
68821;SDS011;55834;50.870;4.606;2023-06-26T12:00:47;4.15;;;1.60;;
68821;SDS011;55834;50.870;4.606;2023-06-26T12:03:13;1.63;;;1.52;;
68821;SDS011;55834;50.870;4.606;2023-06-26T12:05:40;7.07;;;1.45;;
68821;SDS011;55834;50.870;4.606;2023-06-26T12:08:06;3.90;;;1.48;;
68821;SDS011;55834;50.870;4.606;2023-06-26T12:10:32;4.38;;;1.95;;
68821;SDS011;55834;50.870;4.606;2023-06-26T12:13:01;3.03;;;0.90;;
68821;SDS011;55834;50.870;4.606;2023-06-26T12:15:26;2.38;;;0.80;;
68821;SDS011;55834;50.870;4.606;2023-06-26T12:17:53;2.67;;;0.80;;
68821;SDS011;55834;50.870;4.606;2023-06-26T12:20:19;1.98;;;0.77;;
68821;SDS011;55834;50.870;4.606;2023-06-26T12:22:46;1.77;;;1.13;;
68821;SDS011;55834;50.870;4.606;2023-06-26T12:25:21;4.40;;;1.20;;
68821;SDS011;55834;50.870;4.606;2023-06-26T12:27:50;3.53;;;1.40;;
68821;SDS011;55834;50.870;4.606;2023-06-26T12:30:16;7.37;;;1.43;;
68821;SDS011;55834;50.870;4.606;2023-06-26T12:32:45;2.13;;;1.42;;
68821;SDS011;55834;50.870;4.606;2023-06-26T12:35:13;2.35;;;1.15;;
68821;SDS011;55834;50.870;4.606;2023-06-26T12:37:41;2.10;;;1.17;;
68821;SDS011;55834;50.870;4.606;2023-06-26T12:40:18;2.55;;;1.65;;
68821;SDS011;55834;50.870;4.606;2023-06-26T12:42:46;2.10;;;1.08;;
68821;SDS011;55834;50.870;4.606;2023-06-26T12:45:12;1.85;;;1.30;;
68821;SDS011;55834;50.870;4.606;2023-06-26T12:47:38;4.65;;;1.20;;
68821;SDS011;55834;50.870;4.606;2023-06-26T12:50:06;2.15;;;1.30;;
68821;SDS011;55834;50.870;4.606;2023-06-26T12:52:32;3.22;;;1.10;;
68821;SDS011;55834;50.870;4.606;2023-06-26T12:54:57;2.05;;;1.20;;
68821;SDS011;55834;50.870;4.606;2023-06-26T12:57:23;2.77;;;1.10;;
68821;SDS011;55834;50.870;4.606;2023-06-26T12:59:48;3.38;;;1.33;;
68821;SDS011;55834;50.870;4.606;2023-06-26T13:02:14;5.43;;;1.02;;
68821;SDS011;55834;50.870;4.606;2023-06-26T13:04:40;5.00;;;0.98;;
68821;SDS011;55834;50.870;4.606;2023-06-26T13:07:09;2.35;;;1.10;;
68821;SDS011;55834;50.870;4.606;2023-06-26T13:09:34;1.60;;;1.10;;
68821;SDS011;55834;50.870;4.606;2023-06-26T13:12:01;2.83;;;1.50;;
68821;SDS011;55834;50.870;4.606;2023-06-26T13:14:28;1.38;;;0.85;;
68821;SDS011;55834;50.870;4.606;2023-06-26T13:16:54;2.78;;;0.90;;
68821;SDS011;55834;50.870;4.606;2023-06-26T13:19:19;2.53;;;1.03;;
68821;SDS011;55834;50.870;4.606;2023-06-26T13:21:45;3.63;;;1.27;;
68821;SDS011;55834;50.870;4.606;2023-06-26T13:24:10;3.10;;;1.17;;
68821;SDS011;55834;50.870;4.606;2023-06-26T13:26:35;1.58;;;0.95;;
68821;SDS011;55834;50.870;4.606;2023-06-26T13:29:01;2.15;;;1.00;;
68821;SDS011;55834;50.870;4.606;2023-06-26T13:31:27;3.03;;;1.23;;
68821;SDS011;55834;50.870;4.606;2023-06-26T13:33:52;4.18;;;1.40;;
68821;SDS011;55834;50.870;4.606;2023-06-26T13:36:18;3.95;;;1.20;;
68821;SDS011;55834;50.870;4.606;2023-06-26T13:38:44;1.05;;;0.70;;
68821;SDS011;55834;50.870;4.606;2023-06-26T13:41:09;1.88;;;1.23;;
68821;SDS011;55834;50.870;4.606;2023-06-26T13:43:35;4.60;;;1.42;;
68821;SDS011;55834;50.870;4.606;2023-06-26T13:46:06;2.23;;;1.20;;
68821;SDS011;55834;50.870;4.606;2023-06-26T13:48:35;3.92;;;1.13;;
68821;SDS011;55834;50.870;4.606;2023-06-26T13:51:00;4.07;;;1.13;;
68821;SDS011;55834;50.870;4.606;2023-06-26T13:53:25;4.47;;;1.20;;
68821;SDS011;55834;50.870;4.606;2023-06-26T13:55:51;1.07;;;0.67;;
68821;SDS011;55834;50.870;4.606;2023-06-26T13:58:16;4.23;;;1.70;;
68821;SDS011;55834;50.870;4.606;2023-06-26T14:00:42;2.10;;;1.00;;
68821;SDS011;55834;50.870;4.606;2023-06-26T14:03:09;3.13;;;1.33;;
68821;SDS011;55834;50.870;4.606;2023-06-26T14:05:35;2.63;;;1.30;;
68821;SDS011;55834;50.870;4.606;2023-06-26T14:08:05;1.65;;;1.13;;
68821;SDS011;55834;50.870;4.606;2023-06-26T14:10:32;1.98;;;1.20;;
68821;SDS011;55834;50.870;4.606;2023-06-26T14:12:58;2.88;;;1.05;;
68821;SDS011;55834;50.870;4.606;2023-06-26T14:15:24;1.80;;;0.85;;
68821;SDS011;55834;50.870;4.606;2023-06-26T14:17:50;3.40;;;1.08;;
68821;SDS011;55834;50.870;4.606;2023-06-26T14:22:42;3.67;;;1.13;;
68821;SDS011;55834;50.870;4.606;2023-06-26T14:25:09;2.50;;;0.98;;
68821;SDS011;55834;50.870;4.606;2023-06-26T14:27:36;1.23;;;0.47;;
68821;SDS011;55834;50.870;4.606;2023-06-26T14:30:05;3.92;;;1.00;;
68821;SDS011;55834;50.870;4.606;2023-06-26T14:32:32;4.32;;;0.93;;
68821;SDS011;55834;50.870;4.606;2023-06-26T14:34:58;2.38;;;0.80;;
68821;SDS011;55834;50.870;4.606;2023-06-26T14:37:23;1.53;;;0.90;;
68821;SDS011;55834;50.870;4.606;2023-06-26T14:39:49;4.35;;;1.60;;
68821;SDS011;55834;50.870;4.606;2023-06-26T14:42:14;3.45;;;1.05;;
68821;SDS011;55834;50.870;4.606;2023-06-26T14:44:40;1.33;;;0.80;;
68821;SDS011;55834;50.870;4.606;2023-06-26T14:47:05;1.30;;;0.83;;
68821;SDS011;55834;50.870;4.606;2023-06-26T14:49:30;3.58;;;1.50;;
68821;SDS011;55834;50.870;4.606;2023-06-26T14:51:56;3.60;;;1.37;;
68821;SDS011;55834;50.870;4.606;2023-06-26T14:54:21;3.22;;;0.80;;
68821;SDS011;55834;50.870;4.606;2023-06-26T14:56:47;1.35;;;1.10;;
68821;SDS011;55834;50.870;4.606;2023-06-26T14:59:14;3.13;;;1.03;;
68821;SDS011;55834;50.870;4.606;2023-06-26T15:01:41;2.90;;;1.13;;
68821;SDS011;55834;50.870;4.606;2023-06-26T15:04:07;2.20;;;0.60;;
68821;SDS011;55834;50.870;4.606;2023-06-26T15:06:33;3.13;;;1.05;;
68821;SDS011;55834;50.870;4.606;2023-06-26T15:08:59;2.08;;;1.30;;
68821;SDS011;55834;50.870;4.606;2023-06-26T15:11:24;2.00;;;1.02;;
68821;SDS011;55834;50.870;4.606;2023-06-26T15:13:50;3.80;;;0.90;;
68821;SDS011;55834;50.870;4.606;2023-06-26T15:16:16;2.13;;;0.98;;